Brooklyn, New York
Current Conditions -  °F | °C
As of 5:15 PM on Friday 24 Oct 2014 (Local Time) from KJRB Reporting Station
Few Clouds Few Clouds  
Wind Chill: 70°   Ceiling: Unl
Heat Index: 70°   Visibility: 10mi
Dew Point: 46°   Wind: 7mph
Humidity: 43%   Direction: 30°NNE
Pressure: 29.77"   Gusts: NA
Location:  40.64°N, 73.96°W
Report Text: KJRB 242115Z AUTO 03006KT 10SM FEW050 21/08 A2977 RMK AO1
Loading
Personal Weather Stations






























Interactive Weather Map
Tropical Storm Tracking
New forecast layout! Learn more

10-Day Weather Forecast

Advertisements
Track Severe Weather on mobile